TYPHON7 LOXZ-LOXZ
Flight info
| Callsign | TYPHON7 |
|---|---|
| Flight time | N/A |
| Altitude | 8000 |
| Route | DCT LOXZ |
| Aircraft | EUFI/M-X/0033 |
Departure
| Time | 2026-05-06 07:24 |
|---|---|
| Airport | Hinterstoisser Air Base (LOXZ) |
Arrival
| Time | N/A |
|---|---|
| Airport | Hinterstoisser Air Base (LOXZ) |
| Time | Latitude | Longitude | Altitude | Speed | Heading |
|---|---|---|---|---|---|
| 2026-05-06 07:20 | 47.20065 | 14.72683 | 2266 ft | 0 kts | 81° |
| 2026-05-06 07:23 | 47.20075 | 14.72781 | 2266 ft | 45 kts | 80° |
| 2026-05-06 07:24 | 47.20192 | 14.73808 | 2242 ft | 157 kts | 82° |
| 2026-05-06 07:24 | 47.20393 | 14.75818 | 2416 ft | 245 kts | 75° |
| 2026-05-06 07:24 | 47.21541 | 14.77606 | 3591 ft | 263 kts | 10° |
| 2026-05-06 07:24 | 47.23501 | 14.77166 | 4472 ft | 327 kts | 343° |
| 2026-05-06 07:25 | 47.25911 | 14.76095 | 5359 ft | 395 kts | 341° |
| 2026-05-06 07:25 | 47.28741 | 14.74765 | 6498 ft | 453 kts | 340° |
| 2026-05-06 07:25 | 47.31767 | 14.72879 | 7399 ft | 497 kts | 322° |
| 2026-05-06 07:25 | 47.33772 | 14.68510 | 6743 ft | 552 kts | 295° |
| 2026-05-06 07:26 | 47.35578 | 14.63145 | 6359 ft | 608 kts | 296° |
| 2026-05-06 07:26 | 47.37993 | 14.57990 | 6953 ft | 607 kts | 317° |
| 2026-05-06 07:26 | 47.41438 | 14.54583 | 6411 ft | 592 kts | 328° |
| 2026-05-06 07:26 | 47.44851 | 14.51223 | 5199 ft | 585 kts | 318° |
| 2026-05-06 07:27 | 47.48250 | 14.48866 | 4481 ft | 554 kts | 13° |
| 2026-05-06 07:27 | 47.50674 | 14.52615 | 5071 ft | 499 kts | 63° |
| 2026-05-06 07:27 | 47.52249 | 14.57054 | 6326 ft | 475 kts | 62° |
| 2026-05-06 07:27 | 47.52893 | 14.61512 | 7120 ft | 415 kts | 112° |
| 2026-05-06 07:28 | 47.50810 | 14.63583 | 7581 ft | 380 kts | 192° |
| 2026-05-06 07:28 | 47.48370 | 14.61651 | 5357 ft | 432 kts | 231° |
| 2026-05-06 07:28 | 47.48934 | 14.52566 | 3050 ft | 485 kts | 286° |
| 2026-05-06 07:29 | 47.49632 | 14.47715 | 3253 ft | 475 kts | 280° |
| 2026-05-06 07:29 | 47.50504 | 14.43031 | 3776 ft | 470 kts | 288° |
| 2026-05-06 07:29 | 47.51487 | 14.38436 | 4181 ft | 466 kts | 285° |
| 2026-05-06 07:29 | 47.52416 | 14.33886 | 4694 ft | 457 kts | 303° |
| 2026-05-06 07:30 | 47.54995 | 14.31634 | 5987 ft | 450 kts | 9° |
| 2026-05-06 07:30 | 47.57633 | 14.33842 | 5284 ft | 429 kts | 39° |
| 2026-05-06 07:30 | 47.60134 | 14.35916 | 5372 ft | 400 kts | 20° |
| 2026-05-06 07:30 | 47.62760 | 14.36621 | 5312 ft | 381 kts | 1° |
| 2026-05-06 07:31 | 47.65370 | 14.36095 | 4905 ft | 372 kts | 343° |
| 2026-05-06 07:31 | 47.67699 | 14.34558 | 4187 ft | 374 kts | 328° |
| 2026-05-06 07:31 | 47.69188 | 14.33096 | 4076 ft | 391 kts | 326° |
| 2026-05-06 07:31 | 47.72672 | 14.30156 | 5228 ft | 478 kts | 335° |
| 2026-05-06 07:32 | 47.75915 | 14.28061 | 5878 ft | 540 kts | 338° |
| 2026-05-06 07:32 | 47.79634 | 14.25974 | 5843 ft | 601 kts | 340° |
| 2026-05-06 07:32 | 47.83719 | 14.23741 | 5646 ft | 641 kts | 340° |
| 2026-05-06 07:32 | 47.86347 | 14.22322 | 5445 ft | 566 kts | 341° |
| 2026-05-06 07:33 | 47.89796 | 14.20694 | 5158 ft | 479 kts | 345° |
| 2026-05-06 07:33 | 47.92828 | 14.19592 | 4864 ft | 423 kts | 349° |
| 2026-05-06 07:33 | 47.96448 | 14.18760 | 4424 ft | 373 kts | 355° |
| 2026-05-06 07:33 | 47.98926 | 14.18409 | 4077 ft | 345 kts | 355° |
| 2026-05-06 07:34 | 48.00499 | 14.18185 | 3908 ft | 326 kts | 355° |
| 2026-05-06 07:34 | 48.02648 | 14.17876 | 3943 ft | 294 kts | 356° |
| 2026-05-06 07:34 | 48.04561 | 14.17597 | 3950 ft | 272 kts | 355° |
| 2026-05-06 07:34 | 48.06455 | 14.17320 | 3961 ft | 273 kts | 355° |
| 2026-05-06 07:35 | 48.08351 | 14.17044 | 3966 ft | 271 kts | 355° |
| 2026-05-06 07:35 | 48.10240 | 14.16763 | 3962 ft | 269 kts | 355° |
| 2026-05-06 07:35 | 48.12114 | 14.16485 | 3965 ft | 273 kts | 355° |
| 2026-05-06 07:35 | 48.14034 | 14.16202 | 3316 ft | 273 kts | 355° |
| 2026-05-06 07:36 | 48.15881 | 14.15917 | 3153 ft | 266 kts | 351° |
| 2026-05-06 07:36 | 48.17474 | 14.14632 | 3044 ft | 268 kts | 311° |
| 2026-05-06 07:36 | 48.18199 | 14.12137 | 3023 ft | 269 kts | 276° |
| 2026-05-06 07:36 | 48.18307 | 14.09386 | 3051 ft | 252 kts | 271° |
| 2026-05-06 07:37 | 48.18282 | 14.06868 | 3074 ft | 241 kts | 266° |
| 2026-05-06 07:37 | 48.18136 | 14.04375 | 3050 ft | 240 kts | 265° |
| 2026-05-06 07:37 | 48.18078 | 14.01893 | 3002 ft | 237 kts | 291° |
| 2026-05-06 07:37 | 48.19206 | 14.00302 | 2953 ft | 229 kts | 359° |
| 2026-05-06 07:38 | 48.20806 | 14.00484 | 3037 ft | 229 kts | 6° |
| 2026-05-06 07:38 | 48.22296 | 14.01140 | 3004 ft | 229 kts | 35° |
| 2026-05-06 07:38 | 48.23196 | 14.03024 | 2593 ft | 226 kts | 79° |
| 2026-05-06 07:38 | 48.23191 | 14.05428 | 2497 ft | 234 kts | 93° |
| 2026-05-06 07:39 | 48.23144 | 14.07816 | 2203 ft | 228 kts | 90° |
| 2026-05-06 07:39 | 48.23152 | 14.09962 | 1913 ft | 185 kts | 89° |
| 2026-05-06 07:39 | 48.23155 | 14.11866 | 1679 ft | 183 kts | 90° |
| 2026-05-06 07:39 | 48.23173 | 14.13754 | 1291 ft | 182 kts | 86° |
| 2026-05-06 07:40 | 48.23272 | 14.15603 | 1205 ft | 173 kts | 88° |
| 2026-05-06 07:40 | 48.23286 | 14.17260 | 982 ft | 151 kts | 88° |
| 2026-05-06 07:40 | 48.23321 | 14.18665 | 973 ft | 109 kts | 88° |
| 2026-05-06 07:40 | 48.23345 | 14.19339 | 974 ft | 47 kts | 87° |
| 2026-05-06 07:41 | 48.23370 | 14.19715 | 978 ft | 28 kts | 55° |
| 2026-05-06 07:41 | 48.23520 | 14.19739 | 970 ft | 23 kts | 341° |
| 2026-05-06 07:41 | 48.23664 | 14.19652 | 969 ft | 20 kts | 337° |
| 2026-05-06 07:41 | 48.23766 | 14.19569 | 971 ft | 12 kts | 268° |
| 2026-05-06 07:42 | 48.23797 | 14.19519 | 971 ft | 12 kts | 339° |
| 2026-05-06 07:42 | 48.23871 | 14.19527 | 969 ft | 0 kts | 329° |